Time;durP1;ratioP1;P1;durP2;ratioP2;P2;SDS_P1;SDS_P2;PMS_P1;PMS_P2;Temp;Humidity;BMP_temperature;BMP_pressure;BME280_temperature;BME280_humidity;BME280_pressure;Samples;Min_cycle;Max_cycle;Signal;HPM_P1;HPM_P2
2022/06/26 00:00:09;;;;;;;23.53;20.03;;;17.20;99.90;;;;;;5054147;28;20463;-67
2022/06/26 00:02:37;;;;;;;22.17;19.87;;;17.30;99.90;;;;;;5051878;28;20492;-65
2022/06/26 00:05:07;;;;;;;23.90;21.70;;;17.20;99.90;;;;;;5056529;28;20474;-65
2022/06/26 00:07:35;;;;;;;23.20;20.80;;;17.20;99.90;;;;;;5055177;28;20451;-66
2022/06/26 00:10:04;;;;;;;21.70;20.00;;;17.10;99.90;;;;;;5046584;28;20499;-66
2022/06/26 00:12:31;;;;;;;24.20;22.10;;;17.10;99.90;;;;;;5053515;28;20459;-67
2022/06/26 00:14:59;;;;;;;24.27;21.67;;;17.10;99.90;;;;;;5054234;28;20460;-65
2022/06/26 00:17:26;;;;;;;24.47;22.50;;;17.10;99.90;;;;;;5055947;28;20460;-65
2022/06/26 00:19:53;;;;;;;23.90;21.90;;;17.10;99.90;;;;;;5052073;28;20467;-66
2022/06/26 00:22:22;;;;;;;24.00;21.97;;;17.10;99.90;;;;;;5057680;28;20467;-65
2022/06/26 00:24:48;;;;;;;24.60;22.20;;;17.10;99.90;;;;;;5053344;28;20532;-66
2022/06/26 00:27:19;;;;;;;27.30;23.10;;;17.10;99.90;;;;;;5051980;28;20470;-67
2022/06/26 00:29:46;;;;;;;24.97;22.80;;;17.00;99.90;;;;;;5050216;28;20854;-66
2022/06/26 00:32:13;;;;;;;24.60;22.23;;;17.00;99.90;;;;;;5051659;28;21230;-65
2022/06/26 00:34:40;;;;;;;29.03;23.07;;;17.00;99.90;;;;;;5058946;28;20471;-65
2022/06/26 00:37:07;;;;;;;25.60;22.90;;;17.00;99.90;;;;;;5060272;28;21011;-67
2022/06/26 00:39:34;;;;;;;25.47;23.07;;;17.00;99.90;;;;;;5057949;28;20464;-66
2022/06/26 00:42:02;;;;;;;22.60;20.67;;;17.10;99.90;;;;;;5055787;28;20466;-66
2022/06/26 00:44:30;;;;;;;26.17;23.70;;;17.10;99.90;;;;;;5059100;28;20462;-66
2022/06/26 00:46:58;;;;;;;25.60;23.43;;;17.10;99.90;;;;;;5052314;28;20868;-66
2022/06/26 00:49:25;;;;;;;25.63;23.23;;;17.00;99.90;;;;;;5053913;28;20470;-65
2022/06/26 00:51:54;;;;;;;22.10;20.17;;;17.00;99.90;;;;;;5056134;28;20561;-66
2022/06/26 00:54:24;;;;;;;25.37;23.23;;;16.90;99.90;;;;;;5054691;28;20958;-66
2022/06/26 00:56:52;;;;;;;26.17;22.90;;;16.80;99.90;;;;;;5053904;28;20450;-67
2022/06/26 00:59:19;;;;;;;26.50;23.97;;;16.80;99.90;;;;;;5048892;28;20475;-65
2022/06/26 01:01:48;;;;;;;29.73;24.60;;;16.80;99.90;;;;;;5050183;28;20462;-66
2022/06/26 01:04:17;;;;;;;26.87;24.60;;;16.80;99.90;;;;;;5052361;28;20969;-65
2022/06/26 01:06:44;;;;;;;26.63;24.30;;;16.80;99.90;;;;;;5047283;28;20498;-64
2022/06/26 01:09:11;;;;;;;25.77;23.27;;;16.90;99.90;;;;;;5055340;28;20498;-65
2022/06/26 01:11:39;;;;;;;25.97;23.70;;;16.90;99.90;;;;;;5053342;28;20490;-67
2022/06/26 01:14:07;;;;;;;26.37;23.90;;;16.80;99.90;;;;;;5057980;28;20459;-65
2022/06/26 01:16:34;;;;;;;25.37;22.77;;;16.80;99.90;;;;;;5059736;28;20909;-66
2022/06/26 01:19:05;;;;;;;25.30;23.07;;;16.80;99.90;;;;;;5057832;28;20459;-66
2022/06/26 01:21:34;;;;;;;26.63;23.93;;;16.80;99.90;;;;;;5058427;28;20463;-67
2022/06/26 01:24:03;;;;;;;26.63;23.67;;;16.80;99.90;;;;;;5056675;28;20585;-65
2022/06/26 01:26:31;;;;;;;26.87;24.07;;;16.70;99.90;;;;;;5052561;28;20470;-65
2022/06/26 01:28:58;;;;;;;25.73;23.47;;;16.70;99.90;;;;;;5059840;28;20459;-65
2022/06/26 01:31:25;;;;;;;26.00;23.37;;;16.80;99.90;;;;;;5055139;28;20490;-67
2022/06/26 01:33:52;;;;;;;24.33;22.20;;;16.80;99.90;;;;;;5059929;28;20800;-66
2022/06/26 01:36:20;;;;;;;23.17;21.10;;;16.90;99.90;;;;;;5060348;28;20916;-66
2022/06/26 01:38:47;;;;;;;24.57;22.20;;;17.00;99.90;;;;;;5053902;28;20462;-66
2022/06/26 01:41:16;;;;;;;24.20;21.90;;;17.00;99.90;;;;;;5059005;28;20466;-65
2022/06/26 01:43:43;;;;;;;24.47;22.00;;;17.00;99.90;;;;;;5055774;28;20485;-65
2022/06/26 01:46:10;;;;;;;25.10;22.73;;;17.00;99.90;;;;;;5063146;28;20467;-65
2022/06/26 01:48:39;;;;;;;27.27;24.70;;;16.90;99.90;;;;;;5060706;28;20458;-67
2022/06/26 01:51:08;;;;;;;27.87;25.23;;;16.90;99.90;;;;;;5055995;28;20484;-67
2022/06/26 01:53:36;;;;;;;26.37;23.47;;;16.80;99.90;;;;;;5059495;28;20463;-65
2022/06/26 01:56:03;;;;;;;28.13;23.37;;;16.80;99.90;;;;;;5055138;28;20468;-65
2022/06/26 01:58:32;;;;;;;25.13;22.70;;;16.80;99.90;;;;;;5057112;28;20847;-67
2022/06/26 02:00:59;;;;;;;26.50;23.77;;;16.80;99.90;;;;;;5057997;28;20463;-65
2022/06/26 02:03:27;;;;;;;24.87;22.53;;;16.80;99.90;;;;;;5055658;28;20961;-67
2022/06/26 02:05:54;;;;;;;26.77;24.67;;;16.80;99.90;;;;;;5054719;28;20481;-65
2022/06/26 02:08:22;;;;;;;26.80;22.80;;;16.80;99.90;;;;;;5051464;28;20613;-65
2022/06/26 02:13:39;;;;;;;25.37;23.30;;;16.70;99.90;;;;;;5056313;28;20470;-65
2022/06/26 02:16:10;;;;;;;26.50;24.13;;;16.80;99.90;;;;;;5056035;28;20950;-66
2022/06/26 02:18:37;;;;;;;25.77;23.10;;;16.70;99.90;;;;;;5054682;28;20893;-65
2022/06/26 02:21:08;;;;;;;24.70;22.07;;;16.70;99.90;;;;;;5058850;28;20463;-65
2022/06/26 02:23:38;;;;;;;25.77;23.67;;;16.80;99.90;;;;;;5061653;28;20483;-65
2022/06/26 02:26:05;;;;;;;26.47;22.57;;;16.70;99.90;;;;;;5060746;28;20460;-65
2022/06/26 02:28:34;;;;;;;24.80;22.70;;;16.70;99.90;;;;;;5062160;28;20463;-65
2022/06/26 02:31:01;;;;;;;25.90;23.67;;;16.60;99.90;;;;;;5057094;28;20537;-66
2022/06/26 02:33:32;;;;;;;28.67;26.07;;;16.50;99.90;;;;;;5058467;28;20467;-66
2022/06/26 02:35:59;;;;;;;26.40;24.27;;;16.50;99.90;;;;;;5054661;28;20542;-65
2022/06/26 02:38:26;;;;;;;26.80;24.30;;;16.50;99.90;;;;;;5055788;28;20822;-64
2022/06/26 02:40:54;;;;;;;27.90;25.07;;;16.50;99.90;;;;;;5053694;28;20464;-65
2022/06/26 02:43:23;;;;;;;27.93;25.17;;;16.50;99.90;;;;;;5059938;28;20456;-65
2022/06/26 02:45:53;;;;;;;26.37;23.90;;;16.60;99.90;;;;;;5055880;28;20519;-65
2022/06/26 02:48:21;;;;;;;29.00;26.30;;;16.60;99.90;;;;;;5056587;28;20471;-66
2022/06/26 02:50:50;;;;;;;28.97;26.23;;;16.70;99.90;;;;;;5057309;28;20475;-66
2022/06/26 02:53:17;;;;;;;29.90;27.10;;;16.70;99.90;;;;;;5059986;28;20465;-66
2022/06/26 02:55:44;;;;;;;27.43;24.83;;;16.70;99.90;;;;;;5053260;28;20464;-64
2022/06/26 02:58:12;;;;;;;30.27;26.57;;;16.70;99.90;;;;;;5059194;28;20473;-65
2022/06/26 03:00:40;;;;;;;30.93;27.87;;;16.70;99.90;;;;;;5057598;28;20476;-66
2022/06/26 03:03:08;;;;;;;32.57;27.60;;;16.80;99.90;;;;;;5056122;28;20837;-65
2022/06/26 03:05:35;;;;;;;27.70;24.77;;;17.00;99.90;;;;;;5059217;28;20471;-66
2022/06/26 03:08:02;;;;;;;26.93;24.10;;;16.90;99.90;;;;;;5058125;28;20471;-66
2022/06/26 03:10:30;;;;;;;27.17;24.40;;;16.90;99.90;;;;;;5050564;28;20502;-66
2022/06/26 03:12:57;;;;;;;26.13;23.47;;;17.00;99.90;;;;;;5052327;28;20474;-65
2022/06/26 03:15:24;;;;;;;25.17;22.20;;;17.00;99.90;;;;;;5058531;28;20477;-64
2022/06/26 03:17:51;;;;;;;26.93;24.07;;;17.10;99.90;;;;;;5062006;28;20987;-65
2022/06/26 03:20:21;;;;;;;25.80;23.27;;;17.10;99.90;;;;;;5053286;28;20815;-67
2022/06/26 03:22:50;;;;;;;22.87;19.90;;;17.20;99.90;;;;;;5063987;28;20460;-66
2022/06/26 03:25:17;;;;;;;19.77;17.73;;;17.20;99.90;;;;;;5055016;28;20823;-65
2022/06/26 03:27:44;;;;;;;17.10;15.50;;;17.10;99.90;;;;;;5054115;28;20455;-65
2022/06/26 03:30:13;;;;;;;17.43;15.27;;;17.00;99.90;;;;;;5054982;28;20463;-64
2022/06/26 03:32:40;;;;;;;15.27;12.63;;;17.00;99.90;;;;;;5049071;28;20488;-66
2022/06/26 03:35:07;;;;;;;13.27;12.17;;;17.00;99.90;;;;;;5058704;28;20463;-66
2022/06/26 03:37:35;;;;;;;13.83;11.67;;;16.90;99.90;;;;;;5056229;28;20949;-66
2022/06/26 03:40:03;;;;;;;12.80;11.60;;;16.80;99.90;;;;;;5057176;28;20468;-65
2022/06/26 03:42:31;;;;;;;12.20;11.17;;;16.80;99.90;;;;;;5059476;28;20497;-65
2022/06/26 03:44:57;;;;;;;11.77;10.83;;;16.70;99.90;;;;;;5059442;28;20474;-64
2022/06/26 03:47:24;;;;;;;15.83;11.03;;;16.60;99.90;;;;;;5052274;28;21101;-66
2022/06/26 03:49:53;;;;;;;14.17;10.13;;;16.60;99.90;;;;;;5048359;28;20475;-66
2022/06/26 03:52:20;;;;;;;10.60;9.57;;;16.50;99.90;;;;;;5057041;28;20510;-66
2022/06/26 03:54:49;;;;;;;11.33;10.23;;;16.50;99.90;;;;;;5052030;28;20984;-65
2022/06/26 03:57:17;;;;;;;11.53;10.33;;;16.40;99.90;;;;;;5053292;28;20468;-65
2022/06/26 03:59:44;;;;;;;11.33;10.13;;;16.50;99.90;;;;;;5055798;28;21038;-65
2022/06/26 04:02:11;;;;;;;11.80;10.70;;;16.50;99.90;;;;;;5042266;28;20989;-66
2022/06/26 04:04:37;;;;;;;12.10;10.37;;;16.50;99.90;;;;;;5029523;28;20855;-66
2022/06/26 04:07:05;;;;;;;12.30;10.70;;;16.50;99.90;;;;;;5048775;28;20463;-67
2022/06/26 04:09:33;;;;;;;18.87;10.90;;;16.50;99.90;;;;;;5050514;28;20836;-65
2022/06/26 04:12:01;;;;;;;11.50;10.60;;;16.40;99.90;;;;;;5057837;28;20470;-64
2022/06/26 04:14:28;;;;;;;12.93;10.27;;;16.40;99.90;;;;;;5042852;28;20468;-65
2022/06/26 04:16:55;;;;;;;17.50;10.47;;;16.30;99.90;;;;;;5027734;28;20467;-65
2022/06/26 04:19:22;;;;;;;22.40;12.17;;;16.30;99.90;;;;;;5028908;28;20786;-66
2022/06/26 04:21:49;;;;;;;16.37;11.80;;;16.20;99.90;;;;;;5028581;28;20918;-66
2022/06/26 04:24:16;;;;;;;19.53;11.20;;;16.20;99.90;;;;;;5029550;28;21056;-65
2022/06/26 04:26:43;;;;;;;16.37;10.87;;;16.20;99.90;;;;;;5027599;28;20569;-65
2022/06/26 04:29:12;;;;;;;13.10;11.87;;;16.20;99.90;;;;;;5026232;28;20468;-66
2022/06/26 04:31:39;;;;;;;13.57;10.70;;;16.20;99.90;;;;;;5027883;28;20471;-66
2022/06/26 04:34:06;;;;;;;13.83;12.53;;;16.20;99.90;;;;;;5027307;28;20458;-67
2022/06/26 04:36:33;;;;;;;13.40;12.10;;;16.30;99.90;;;;;;5028935;28;21170;-65
2022/06/26 04:39:00;;;;;;;14.60;12.40;;;16.30;99.90;;;;;;5029187;28;20490;-66
2022/06/26 04:41:34;;;;;;;13.93;12.57;;;16.30;99.90;;;;;;5027968;28;20548;-66
2022/06/26 04:44:02;;;;;;;13.23;12.03;;;16.30;99.90;;;;;;5026388;28;20460;-66
2022/06/26 04:46:31;;;;;;;24.63;13.57;;;16.30;99.90;;;;;;5027729;28;21045;-66
2022/06/26 04:48:57;;;;;;;14.73;12.63;;;16.20;99.90;;;;;;5027163;28;20486;-66
2022/06/26 04:51:24;;;;;;;22.93;14.63;;;16.30;99.90;;;;;;5028740;28;20482;-64
2022/06/26 04:53:51;;;;;;;15.23;13.43;;;16.30;99.90;;;;;;5028345;28;20489;-65
2022/06/26 04:56:18;;;;;;;15.10;13.80;;;16.40;99.90;;;;;;5027636;28;20982;-65
2022/06/26 04:58:45;;;;;;;15.27;13.83;;;16.40;99.90;;;;;;5027867;28;20947;-66
2022/06/26 05:01:12;;;;;;;19.90;12.93;;;16.50;99.90;;;;;;5027922;28;20471;-66
2022/06/26 05:03:40;;;;;;;14.20;13.00;;;16.40;99.90;;;;;;5028542;28;20866;-66
2022/06/26 05:06:07;;;;;;;15.13;13.73;;;16.40;99.90;;;;;;5028734;28;21503;-65
2022/06/26 05:08:34;;;;;;;15.67;14.17;;;16.40;99.90;;;;;;5026477;28;20670;-66
2022/06/26 05:11:02;;;;;;;18.00;15.10;;;16.30;99.90;;;;;;5027376;28;21006;-65
2022/06/26 05:13:28;;;;;;;19.17;16.20;;;16.40;99.90;;;;;;5028599;28;20483;-66
2022/06/26 05:15:56;;;;;;;15.97;14.50;;;16.50;99.90;;;;;;5027260;28;21092;-65
2022/06/26 05:18:23;;;;;;;14.87;13.50;;;16.50;99.90;;;;;;5028710;28;21027;-66
2022/06/26 05:20:52;;;;;;;14.90;12.73;;;16.60;99.90;;;;;;5026932;28;20456;-65
2022/06/26 05:23:19;;;;;;;11.63;10.63;;;16.90;99.90;;;;;;5029188;28;20586;-66
2022/06/26 05:25:46;;;;;;;11.23;10.10;;;16.90;99.90;;;;;;5028825;28;20846;-67
2022/06/26 05:28:13;;;;;;;11.07;9.97;;;17.10;99.90;;;;;;5027226;28;20465;-66
2022/06/26 05:30:40;;;;;;;12.40;11.40;;;17.10;99.90;;;;;;5028298;28;20464;-66
2022/06/26 05:33:07;;;;;;;9.87;9.07;;;17.10;99.90;;;;;;5027779;28;20629;-66
2022/06/26 05:35:34;;;;;;;11.83;9.63;;;17.20;99.90;;;;;;5028480;28;20459;-66
2022/06/26 05:38:02;;;;;;;13.97;9.30;;;17.20;99.90;;;;;;5028104;28;20471;-65
2022/06/26 05:40:30;;;;;;;10.53;9.43;;;17.20;99.90;;;;;;5028699;28;20456;-66
2022/06/26 05:42:58;;;;;;;13.17;10.20;;;17.10;99.90;;;;;;5028166;28;20490;-65
2022/06/26 05:45:25;;;;;;;12.50;11.20;;;17.10;99.90;;;;;;5027373;28;20467;-66
2022/06/26 05:47:52;;;;;;;11.00;10.00;;;17.10;99.90;;;;;;5025821;28;20462;-65
2022/06/26 05:50:20;;;;;;;11.37;10.30;;;17.10;99.90;;;;;;5026388;28;20461;-67
2022/06/26 05:52:48;;;;;;;10.27;9.30;;;17.10;99.90;;;;;;5026677;28;20537;-65
2022/06/26 05:55:16;;;;;;;18.23;9.90;;;17.20;99.90;;;;;;5027006;28;20483;-65
2022/06/26 05:57:43;;;;;;;13.67;9.10;;;17.30;99.90;;;;;;5027432;28;20468;-64
2022/06/26 06:00:12;;;;;;;11.33;8.87;;;17.40;99.90;;;;;;5026683;28;20475;-67
2022/06/26 06:02:40;;;;;;;11.73;9.30;;;17.50;99.90;;;;;;5027761;28;20613;-66
2022/06/26 06:05:07;;;;;;;11.03;10.07;;;17.50;99.90;;;;;;5029730;28;20470;-65
2022/06/26 06:07:35;;;;;;;9.90;9.03;;;17.50;99.90;;;;;;5028675;28;20458;-65
2022/06/26 06:10:03;;;;;;;10.60;9.60;;;17.60;99.90;;;;;;5029804;28;20480;-66
2022/06/26 06:12:32;;;;;;;10.50;9.50;;;17.50;99.90;;;;;;5031063;28;20462;-66
2022/06/26 06:14:59;;;;;;;15.93;10.57;;;17.60;99.90;;;;;;5028776;28;20476;-67
2022/06/26 06:17:40;;;;;;;11.40;9.10;;;17.70;99.90;;;;;;5029503;28;20498;-66
2022/06/26 06:20:10;;;;;;;10.93;9.50;;;17.80;99.90;;;;;;5027598;28;20859;-66
2022/06/26 06:22:37;;;;;;;10.50;9.40;;;18.10;99.90;;;;;;5029044;28;20558;-66
2022/06/26 06:25:04;;;;;;;10.00;9.10;;;18.30;99.90;;;;;;5029048;28;20932;-69
2022/06/26 06:27:32;;;;;;;11.33;10.23;;;18.60;99.90;;;;;;5029142;28;21168;-66
2022/06/26 06:29:59;;;;;;;13.20;10.83;;;18.80;99.90;;;;;;5028104;28;20463;-66
2022/06/26 06:32:26;;;;;;;12.03;11.13;;;19.00;99.90;;;;;;5028920;28;21016;-65
2022/06/26 06:34:53;;;;;;;13.90;12.60;;;19.30;99.90;;;;;;5027786;28;21221;-66
2022/06/26 06:37:20;;;;;;;14.23;11.33;;;19.60;99.90;;;;;;5028799;28;20517;-66
2022/06/26 06:39:47;;;;;;;13.90;12.80;;;19.80;99.90;;;;;;5029148;28;20568;-67
2022/06/26 06:42:13;;;;;;;12.30;11.60;;;19.80;99.90;;;;;;5029772;28;20500;-66
2022/06/26 06:44:42;;;;;;;13.17;12.40;;;20.10;99.90;;;;;;5029488;28;20986;-67
2022/06/26 06:47:09;;;;;;;13.60;12.70;;;20.30;99.90;;;;;;5029043;28;20475;-66
2022/06/26 06:49:36;;;;;;;14.70;13.70;;;20.30;99.90;;;;;;5027851;28;20878;-67
2022/06/26 06:52:03;;;;;;;15.97;13.83;;;20.50;99.90;;;;;;5029338;28;20471;-66
2022/06/26 06:54:30;;;;;;;14.10;12.87;;;20.50;99.90;;;;;;5030001;28;20459;-67
2022/06/26 06:56:57;;;;;;;14.30;13.20;;;20.60;99.90;;;;;;5029027;28;22499;-66
2022/06/26 06:59:24;;;;;;;14.40;13.60;;;20.60;99.90;;;;;;5027969;28;20456;-67
2022/06/26 07:01:52;;;;;;;14.27;13.27;;;20.40;99.90;;;;;;5027179;28;20529;-68
2022/06/26 07:04:20;;;;;;;13.27;12.57;;;20.70;99.90;;;;;;5028167;28;20455;-67
2022/06/26 07:06:48;;;;;;;13.80;13.10;;;20.90;99.90;;;;;;5029050;28;20471;-67
2022/06/26 07:09:15;;;;;;;14.03;13.07;;;20.60;99.90;;;;;;5028260;28;21044;-66
2022/06/26 07:11:42;;;;;;;14.07;13.37;;;20.70;99.90;;;;;;5027789;28;22420;-67
2022/06/26 07:14:08;;;;;;;14.20;13.03;;;20.80;99.90;;;;;;5027693;28;21264;-66
2022/06/26 07:16:36;;;;;;;12.70;12.10;;;21.00;99.90;;;;;;5025359;28;20674;-68
2022/06/26 07:19:05;;;;;;;13.27;12.47;;;21.50;99.90;;;;;;5027765;28;20545;-67
2022/06/26 07:21:32;;;;;;;12.90;12.30;;;21.60;99.90;;;;;;5028827;28;20789;-66
2022/06/26 07:23:59;;;;;;;13.80;12.90;;;21.60;99.90;;;;;;5026192;28;20490;-67
2022/06/26 07:26:26;;;;;;;12.90;12.00;;;21.50;99.90;;;;;;5026676;28;20482;-67
2022/06/26 07:28:53;;;;;;;12.90;12.20;;;21.40;99.90;;;;;;5027060;28;20456;-66
2022/06/26 07:31:19;;;;;;;13.20;12.40;;;21.30;99.90;;;;;;5028223;28;20487;-67
2022/06/26 07:36:33;;;;;;;12.50;11.90;;;21.50;99.90;;;;;;5028764;28;20466;-68
2022/06/26 07:39:01;;;;;;;12.83;11.90;;;21.20;99.90;;;;;;5028194;28;20518;-66
2022/06/26 07:41:28;;;;;;;13.30;12.50;;;21.20;99.90;;;;;;5028607;28;20997;-68
2022/06/26 07:43:55;;;;;;;12.20;11.60;;;21.40;99.90;;;;;;5027000;28;21073;-66
2022/06/26 07:46:22;;;;;;;12.10;11.50;;;22.00;99.90;;;;;;5028763;28;20475;-66
2022/06/26 07:48:48;;;;;;;12.47;11.87;;;21.90;99.90;;;;;;5027842;28;20456;-67
2022/06/26 07:51:15;;;;;;;13.13;12.43;;;22.40;99.90;;;;;;5028165;28;20830;-66
2022/06/26 07:53:45;;;;;;;13.33;12.63;;;22.40;99.90;;;;;;5028639;28;20464;-67
2022/06/26 07:56:13;;;;;;;13.83;13.03;;;22.20;99.90;;;;;;5027653;28;20986;-68
2022/06/26 07:58:40;;;;;;;13.20;12.50;;;22.50;99.90;;;;;;5044457;28;20467;-65
2022/06/26 08:01:07;;;;;;;12.97;12.27;;;22.50;99.90;;;;;;5054361;28;20471;-67
2022/06/26 08:03:35;;;;;;;12.93;12.33;;;22.80;99.90;;;;;;5044929;28;20488;-67
2022/06/26 08:06:02;;;;;;;12.83;12.20;;;22.80;99.90;;;;;;5028133;28;21503;-67
2022/06/26 08:08:29;;;;;;;13.03;12.43;;;23.10;99.90;;;;;;5027369;28;20867;-68
2022/06/26 08:10:57;;;;;;;13.60;12.80;;;23.10;99.90;;;;;;5027149;28;20468;-66
2022/06/26 08:13:24;;;;;;;13.97;13.17;;;23.20;99.90;;;;;;5027066;28;20460;-66
2022/06/26 08:15:52;;;;;;;13.30;12.70;;;23.20;99.90;;;;;;5026764;28;20461;-68
2022/06/26 08:18:18;;;;;;;13.40;12.70;;;22.80;99.90;;;;;;5027229;28;20830;-67
2022/06/26 08:20:45;;;;;;;12.73;12.13;;;21.90;99.90;;;;;;5025755;28;20482;-68
2022/06/26 08:23:12;;;;;;;12.90;12.20;;;22.00;99.90;;;;;;5040217;28;20517;-66
2022/06/26 08:25:41;;;;;;;13.43;12.73;;;22.00;99.90;;;;;;5055507;28;20470;-67
2022/06/26 08:28:09;;;;;;;13.97;13.17;;;22.20;99.90;;;;;;5057665;28;20464;-66
2022/06/26 08:30:36;;;;;;;13.80;13.20;;;22.40;99.90;;;;;;5029467;28;20459;-67
2022/06/26 08:33:03;;;;;;;13.50;12.80;;;22.60;99.90;;;;;;5027096;28;20482;-68
2022/06/26 08:35:30;;;;;;;12.50;11.80;;;22.30;99.90;;;;;;5027924;28;21478;-67
2022/06/26 08:37:58;;;;;;;13.00;12.40;;;22.40;99.90;;;;;;5027143;28;20482;-67
2022/06/26 08:40:24;;;;;;;13.90;13.00;;;23.10;99.90;;;;;;5027149;28;20470;-68
2022/06/26 08:42:53;;;;;;;13.47;12.77;;;23.50;99.90;;;;;;5027244;28;20491;-67
2022/06/26 08:45:23;;;;;;;13.80;13.00;;;23.40;99.90;;;;;;5027331;28;21035;-68
2022/06/26 08:47:51;;;;;;;13.83;13.23;;;23.70;99.90;;;;;;5025422;28;20459;-68
2022/06/26 08:50:21;;;;;;;14.23;13.53;;;23.80;99.90;;;;;;5026416;28;20468;-68
2022/06/26 08:52:51;;;;;;;13.73;13.03;;;24.00;99.90;;;;;;5026966;28;20526;-69
2022/06/26 08:55:19;;;;;;;14.13;13.43;;;24.20;99.90;;;;;;5026674;28;20478;-69
2022/06/26 08:57:47;;;;;;;13.60;13.00;;;24.60;99.90;;;;;;5026452;28;20467;-68
2022/06/26 09:00:15;;;;;;;13.67;12.97;;;24.20;99.90;;;;;;5027468;28;20460;-67
2022/06/26 09:02:44;;;;;;;13.90;13.20;;;24.00;99.90;;;;;;5026912;28;20496;-68
2022/06/26 09:05:11;;;;;;;14.13;13.43;;;24.40;99.90;;;;;;5027056;28;20925;-68
2022/06/26 09:07:46;;;;;;;13.90;13.30;;;24.30;99.90;;;;;;5026049;28;20475;-68
2022/06/26 09:10:16;;;;;;;13.80;12.90;;;24.50;99.90;;;;;;5025718;28;20581;-68
2022/06/26 09:12:44;;;;;;;13.73;13.03;;;24.30;99.90;;;;;;5026452;28;20463;-68
2022/06/26 09:15:17;;;;;;;14.20;13.40;;;24.80;99.90;;;;;;5024860;28;20844;-68
2022/06/26 09:17:56;;;;;;;14.57;13.80;;;24.50;99.90;;;;;;5025648;28;20472;-67
2022/06/26 09:20:24;;;;;;;14.83;13.90;;;24.70;99.90;;;;;;5026751;28;20833;-68
2022/06/26 09:22:55;;;;;;;14.60;13.80;;;25.00;99.90;;;;;;5025574;28;20491;-68
2022/06/26 09:25:34;;;;;;;15.37;14.20;;;24.90;99.90;;;;;;5026641;28;20913;-67
2022/06/26 09:28:06;;;;;;;13.80;13.10;;;25.00;99.90;;;;;;5025575;28;20451;-68
2022/06/26 09:30:33;;;;;;;14.27;13.03;;;24.90;99.90;;;;;;5026703;28;20501;-68
2022/06/26 09:33:03;;;;;;;14.23;13.43;;;25.30;99.90;;;;;;5026703;28;20464;-67
2022/06/26 09:35:31;;;;;;;14.73;13.50;;;25.90;99.90;;;;;;5026929;28;20484;-67
2022/06/26 09:37:59;;;;;;;14.20;13.30;;;26.40;99.90;;;;;;5030780;28;20467;-67
2022/06/26 09:40:27;;;;;;;15.17;14.43;;;26.70;99.90;;;;;;5029835;28;21009;-69
2022/06/26 09:42:54;;;;;;;14.40;13.47;;;26.60;99.00;;;;;;5029827;28;20602;-67
2022/06/26 09:45:21;;;;;;;13.77;13.07;;;27.30;99.00;;;;;;5028562;28;21000;-67
2022/06/26 09:47:49;;;;;;;13.57;12.73;;;27.30;98.50;;;;;;5029523;28;21026;-66
2022/06/26 09:50:19;;;;;;;14.20;13.50;;;27.20;97.10;;;;;;5029670;28;20935;-66
2022/06/26 09:52:46;;;;;;;13.90;13.20;;;26.80;97.90;;;;;;5030163;28;20467;-67
2022/06/26 09:55:13;;;;;;;14.13;13.50;;;25.90;97.50;;;;;;5029095;28;20537;-66
2022/06/26 09:57:40;;;;;;;13.97;13.17;;;25.60;97.30;;;;;;5029118;28;20471;-67
2022/06/26 10:00:10;;;;;;;14.00;12.90;;;25.70;98.10;;;;;;5028740;28;20470;-67
2022/06/26 10:08:14;;;;;;;13.90;13.30;;;24.60;98.90;;;;;;5029796;28;20466;-67
2022/06/26 10:10:43;;;;;;;14.40;13.40;;;24.70;99.30;;;;;;5028631;28;20973;-67
2022/06/26 10:13:11;;;;;;;13.87;13.07;;;24.30;99.90;;;;;;5028774;28;20479;-67
2022/06/26 10:15:46;;;;;;;13.60;12.70;;;24.10;99.90;;;;;;5028723;28;21029;-67
2022/06/26 10:18:32;;;;;;;13.50;12.90;;;23.90;99.90;;;;;;5030024;28;20466;-67
2022/06/26 10:21:08;;;;;;;13.60;12.80;;;23.90;99.90;;;;;;5029410;28;20467;-67
2022/06/26 10:23:36;;;;;;;13.90;13.13;;;23.50;99.90;;;;;;5030016;28;20518;-66
2022/06/26 10:26:14;;;;;;;13.60;12.90;;;24.00;99.90;;;;;;5029553;28;20464;-67
2022/06/26 10:28:57;;;;;;;13.07;12.40;;;24.10;99.90;;;;;;5028239;28;20475;-66
2022/06/26 10:31:24;;;;;;;13.30;12.60;;;24.20;99.90;;;;;;5029927;28;20478;-67
2022/06/26 10:33:51;;;;;;;13.90;13.10;;;24.30;99.90;;;;;;5028712;28;20475;-68
2022/06/26 10:36:22;;;;;;;14.50;13.60;;;23.60;99.90;;;;;;5028668;28;20464;-67
2022/06/26 10:38:50;;;;;;;13.73;13.13;;;23.50;99.90;;;;;;5028360;28;20474;-67
2022/06/26 10:44:04;;;;;;;13.80;13.00;;;23.20;99.90;;;;;;5029746;28;20541;-66
2022/06/26 10:46:39;;;;;;;14.50;13.50;;;23.10;99.90;;;;;;5028067;28;20463;-68
2022/06/26 10:49:07;;;;;;;14.70;13.83;;;23.10;99.90;;;;;;5029012;28;20459;-67
2022/06/26 10:51:40;;;;;;;13.60;12.90;;;23.20;99.90;;;;;;5028616;28;20468;-66
2022/06/26 10:54:18;;;;;;;13.47;12.77;;;23.30;99.90;;;;;;5029477;28;20483;-68
2022/06/26 10:56:46;;;;;;;13.50;12.50;;;23.30;99.90;;;;;;5029184;28;20562;-67
2022/06/26 10:59:17;;;;;;;12.90;12.20;;;23.40;99.90;;;;;;5028477;28;20464;-66
2022/06/26 11:01:43;;;;;;;13.70;12.63;;;23.20;99.90;;;;;;5028841;28;20554;-66
2022/06/26 11:04:11;;;;;;;13.43;12.60;;;23.00;99.90;;;;;;5029432;28;21857;-67
2022/06/26 11:06:40;;;;;;;12.20;11.70;;;22.60;99.90;;;;;;5028063;28;20547;-68
2022/06/26 11:09:09;;;;;;;12.70;11.80;;;22.60;99.90;;;;;;5027640;28;20492;-66
2022/06/26 11:11:37;;;;;;;12.70;11.60;;;22.70;99.90;;;;;;5029141;28;20464;-67
2022/06/26 11:14:07;;;;;;;13.20;12.40;;;22.70;99.90;;;;;;5028674;28;21185;-67
2022/06/26 11:16:38;;;;;;;12.73;11.93;;;22.80;99.90;;;;;;5028914;28;20792;-66
2022/06/26 11:19:07;;;;;;;12.57;11.97;;;22.60;99.90;;;;;;5028636;28;20487;-66
2022/06/26 11:21:34;;;;;;;13.30;12.50;;;22.80;99.90;;;;;;5028459;28;20464;-65
2022/06/26 11:24:03;;;;;;;14.37;13.10;;;22.70;99.90;;;;;;5028870;28;20537;-67
2022/06/26 11:26:30;;;;;;;16.90;15.63;;;22.50;99.90;;;;;;5027683;28;21013;-67
2022/06/26 11:28:59;;;;;;;17.27;16.30;;;22.30;99.90;;;;;;5027213;28;20460;-67
2022/06/26 11:31:28;;;;;;;19.80;18.40;;;22.10;99.90;;;;;;5030457;28;21715;-65
2022/06/26 11:33:56;;;;;;;19.77;18.50;;;21.90;99.90;;;;;;5044872;28;20498;-64
2022/06/26 11:36:23;;;;;;;21.60;20.00;;;21.80;99.90;;;;;;5045331;28;20467;-66
2022/06/26 11:38:54;;;;;;;23.67;22.07;;;21.50;99.90;;;;;;5041224;28;21158;-67
2022/06/26 11:41:23;;;;;;;23.23;21.53;;;20.80;99.90;;;;;;5023518;28;20478;-67
2022/06/26 11:43:53;;;;;;;21.73;20.33;;;20.60;99.90;;;;;;5022375;28;20464;-65
2022/06/26 11:46:20;;;;;;;20.93;19.27;;;20.50;99.90;;;;;;5022421;28;20472;-68
2022/06/26 11:48:50;;;;;;;20.27;18.83;;;20.60;99.90;;;;;;5021889;28;20464;-68
2022/06/26 11:51:18;;;;;;;17.53;16.13;;;20.70;99.90;;;;;;5021984;28;20460;-68
2022/06/26 11:53:46;;;;;;;14.90;13.80;;;21.00;99.90;;;;;;5021216;28;20513;-68
2022/06/26 11:56:19;;;;;;;14.43;13.33;;;21.10;99.90;;;;;;5022231;28;20917;-66
2022/06/26 11:58:50;;;;;;;12.50;11.80;;;21.10;99.90;;;;;;5021119;28;20467;-65
2022/06/26 12:01:17;;;;;;;14.77;13.37;;;21.10;99.90;;;;;;5020214;28;21058;-68
2022/06/26 12:03:54;;;;;;;15.00;14.00;;;20.90;99.90;;;;;;5021953;28;20479;-67
2022/06/26 12:06:29;;;;;;;16.00;14.80;;;20.80;99.90;;;;;;5020762;28;20460;-67
2022/06/26 12:08:56;;;;;;;15.37;14.20;;;20.90;99.90;;;;;;5018891;28;20925;-67
2022/06/26 12:11:23;;;;;;;15.40;14.40;;;20.90;99.90;;;;;;5021387;28;21061;-67
2022/06/26 12:13:52;;;;;;;15.60;14.57;;;20.90;99.90;;;;;;5021196;28;20487;-68
2022/06/26 12:16:19;;;;;;;15.23;14.07;;;20.80;99.90;;;;;;5021086;28;20467;-67
2022/06/26 12:18:48;;;;;;;15.20;14.00;;;20.60;99.90;;;;;;5020269;28;20475;-66
2022/06/26 12:21:17;;;;;;;14.80;14.00;;;20.40;99.90;;;;;;5019782;28;20455;-67
2022/06/26 12:23:45;;;;;;;13.70;12.90;;;20.20;99.90;;;;;;5020643;28;20499;-67
2022/06/26 12:26:13;;;;;;;14.83;13.53;;;20.30;99.90;;;;;;5020680;28;20468;-66
2022/06/26 12:28:45;;;;;;;13.77;13.13;;;20.50;99.90;;;;;;5015788;28;20465;-66
2022/06/26 12:31:14;;;;;;;13.40;12.70;;;20.50;99.90;;;;;;5018948;28;21017;-68
2022/06/26 12:33:42;;;;;;;13.60;12.90;;;20.50;99.90;;;;;;5036419;28;20474;-66
2022/06/26 12:36:09;;;;;;;14.07;13.30;;;20.60;99.90;;;;;;5042056;28;20478;-67
2022/06/26 12:38:39;;;;;;;13.60;12.90;;;20.10;99.90;;;;;;5036722;28;20934;-66
2022/06/26 12:41:16;;;;;;;13.20;12.40;;;20.30;99.90;;;;;;5020774;28;21560;-66
2022/06/26 12:43:44;;;;;;;13.23;12.50;;;20.40;99.90;;;;;;5021895;28;20554;-66
2022/06/26 12:46:10;;;;;;;13.60;12.80;;;20.50;99.90;;;;;;5020874;28;20757;-67